sensor_id;sensor_type;location;lat;lon;timestamp;pressure;altitude;pressure_sealevel;temperature;humidity
61345;BME280;47216;42.656;23.232;2023-06-05T00:00:07;94359.22;;;14.46;81.61
61345;BME280;47216;42.656;23.232;2023-06-05T00:02:36;94359.72;;;14.38;81.41
61345;BME280;47216;42.656;23.232;2023-06-05T00:05:04;94369.19;;;14.44;81.54
61345;BME280;47216;42.656;23.232;2023-06-05T00:07:34;94368.66;;;14.42;81.82
61345;BME280;47216;42.656;23.232;2023-06-05T00:10:04;94363.44;;;14.47;81.83
61345;BME280;47216;42.656;23.232;2023-06-05T00:12:30;94361.84;;;14.46;81.18
61345;BME280;47216;42.656;23.232;2023-06-05T00:14:57;94359.50;;;14.44;81.17
61345;BME280;47216;42.656;23.232;2023-06-05T00:17:24;94353.41;;;14.34;81.33
61345;BME280;47216;42.656;23.232;2023-06-05T00:19:52;94364.47;;;14.41;82.12
61345;BME280;47216;42.656;23.232;2023-06-05T00:22:19;94356.06;;;14.39;81.88
61345;BME280;47216;42.656;23.232;2023-06-05T00:24:46;94358.69;;;14.39;81.72
61345;BME280;47216;42.656;23.232;2023-06-05T00:27:13;94367.31;;;14.39;81.53
61345;BME280;47216;42.656;23.232;2023-06-05T00:29:40;94365.47;;;14.35;81.22
61345;BME280;47216;42.656;23.232;2023-06-05T00:32:06;94355.75;;;14.25;81.52
61345;BME280;47216;42.656;23.232;2023-06-05T00:34:33;94366.50;;;14.23;81.98
61345;BME280;47216;42.656;23.232;2023-06-05T00:37:01;94372.25;;;14.25;81.77
61345;BME280;47216;42.656;23.232;2023-06-05T00:39:28;94372.81;;;14.27;82.42
61345;BME280;47216;42.656;23.232;2023-06-05T00:41:55;94367.03;;;14.25;81.93
61345;BME280;47216;42.656;23.232;2023-06-05T00:44:22;94360.22;;;14.24;82.33
61345;BME280;47216;42.656;23.232;2023-06-05T00:46:50;94365.47;;;14.35;82.37
61345;BME280;47216;42.656;23.232;2023-06-05T00:49:19;94363.38;;;14.32;82.31
61345;BME280;47216;42.656;23.232;2023-06-05T00:51:46;94356.81;;;14.29;82.21
61345;BME280;47216;42.656;23.232;2023-06-05T00:54:15;94358.13;;;14.26;82.38
61345;BME280;47216;42.656;23.232;2023-06-05T00:56:43;94342.88;;;14.18;82.48
61345;BME280;47216;42.656;23.232;2023-06-05T00:59:11;94349.47;;;14.31;82.35
61345;BME280;47216;42.656;23.232;2023-06-05T01:01:42;94351.56;;;14.29;82.46
61345;BME280;47216;42.656;23.232;2023-06-05T01:04:09;94345.25;;;14.25;82.43
61345;BME280;47216;42.656;23.232;2023-06-05T01:06:36;94345.00;;;14.26;82.18
61345;BME280;47216;42.656;23.232;2023-06-05T01:09:06;94328.19;;;14.17;82.57
61345;BME280;47216;42.656;23.232;2023-06-05T01:11:40;94331.09;;;14.26;82.63
61345;BME280;47216;42.656;23.232;2023-06-05T01:14:14;94326.13;;;14.29;82.33
61345;BME280;47216;42.656;23.232;2023-06-05T01:16:45;94336.13;;;14.33;82.63
61345;BME280;47216;42.656;23.232;2023-06-05T01:19:14;94332.41;;;14.28;82.53
61345;BME280;47216;42.656;23.232;2023-06-05T01:21:42;94333.44;;;14.27;82.43
61345;BME280;47216;42.656;23.232;2023-06-05T01:24:10;94328.72;;;14.19;83.02
61345;BME280;47216;42.656;23.232;2023-06-05T01:26:43;94316.38;;;14.10;82.45
61345;BME280;47216;42.656;23.232;2023-06-05T01:29:21;94314.53;;;14.05;82.34
61345;BME280;47216;42.656;23.232;2023-06-05T01:31:51;94317.16;;;14.10;82.75
61345;BME280;47216;42.656;23.232;2023-06-05T01:34:22;94322.09;;;13.96;83.21
61345;BME280;47216;42.656;23.232;2023-06-05T01:36:50;94298.66;;;13.79;83.80
61345;BME280;47216;42.656;23.232;2023-06-05T01:39:21;94310.50;;;13.82;83.29
61345;BME280;47216;42.656;23.232;2023-06-05T01:41:49;94298.66;;;13.74;83.76
61345;BME280;47216;42.656;23.232;2023-06-05T01:44:16;94313.38;;;13.80;83.47
61345;BME280;47216;42.656;23.232;2023-06-05T01:46:44;94323.31;;;13.83;83.21
61345;BME280;47216;42.656;23.232;2023-06-05T01:49:11;94315.44;;;13.78;83.10
61345;BME280;47216;42.656;23.232;2023-06-05T01:51:38;94314.97;;;13.86;83.44
61345;BME280;47216;42.656;23.232;2023-06-05T01:54:05;94313.34;;;13.75;83.53
61345;BME280;47216;42.656;23.232;2023-06-05T01:56:34;94313.06;;;13.77;83.22
61345;BME280;47216;42.656;23.232;2023-06-05T01:59:02;94317.00;;;13.74;83.02
61345;BME280;47216;42.656;23.232;2023-06-05T02:01:33;94319.13;;;13.77;83.02
61345;BME280;47216;42.656;23.232;2023-06-05T02:04:01;94322.78;;;13.81;83.39
61345;BME280;47216;42.656;23.232;2023-06-05T02:06:34;94309.44;;;13.83;82.62
61345;BME280;47216;42.656;23.232;2023-06-05T02:09:09;94325.16;;;13.83;82.93
61345;BME280;47216;42.656;23.232;2023-06-05T02:11:39;94317.06;;;13.84;82.90
61345;BME280;47216;42.656;23.232;2023-06-05T02:14:08;94313.38;;;13.85;82.72
61345;BME280;47216;42.656;23.232;2023-06-05T02:16:37;94312.59;;;13.90;82.29
61345;BME280;47216;42.656;23.232;2023-06-05T02:19:05;94320.22;;;13.86;82.25
61345;BME280;47216;42.656;23.232;2023-06-05T02:21:32;94313.38;;;13.80;82.37
61345;BME280;47216;42.656;23.232;2023-06-05T02:24:00;94288.38;;;13.68;81.83
61345;BME280;47216;42.656;23.232;2023-06-05T02:26:27;94312.34;;;13.86;82.15
61345;BME280;47216;42.656;23.232;2023-06-05T02:28:57;94315.00;;;13.92;82.37
61345;BME280;47216;42.656;23.232;2023-06-05T02:31:25;94312.84;;;13.83;81.59
61345;BME280;47216;42.656;23.232;2023-06-05T02:33:54;94313.28;;;13.70;81.69
61345;BME280;47216;42.656;23.232;2023-06-05T02:36:22;94314.59;;;13.68;82.50
61345;BME280;47216;42.656;23.232;2023-06-05T02:38:49;94314.88;;;13.66;82.81
61345;BME280;47216;42.656;23.232;2023-06-05T02:41:18;94321.13;;;13.60;82.44
61345;BME280;47216;42.656;23.232;2023-06-05T02:43:46;94325.34;;;13.66;82.40
61345;BME280;47216;42.656;23.232;2023-06-05T02:46:14;94322.75;;;13.71;82.85
61345;BME280;47216;42.656;23.232;2023-06-05T02:48:41;94313.84;;;13.72;82.97
61345;BME280;47216;42.656;23.232;2023-06-05T02:51:08;94310.72;;;13.75;82.30
61345;BME280;47216;42.656;23.232;2023-06-05T02:53:36;94294.44;;;13.68;82.30
61345;BME280;47216;42.656;23.232;2023-06-05T02:56:03;94313.81;;;13.67;82.23
61345;BME280;47216;42.656;23.232;2023-06-05T02:58:30;94310.66;;;13.65;81.65
61345;BME280;47216;42.656;23.232;2023-06-05T03:00:59;94324.81;;;13.64;82.12
61345;BME280;47216;42.656;23.232;2023-06-05T03:03:29;94323.69;;;13.50;82.53
61345;BME280;47216;42.656;23.232;2023-06-05T03:05:57;94329.38;;;13.36;83.04
61345;BME280;47216;42.656;23.232;2023-06-05T03:08:30;94336.72;;;13.39;83.66
61345;BME280;47216;42.656;23.232;2023-06-05T03:10:58;94325.97;;;13.36;83.48
61345;BME280;47216;42.656;23.232;2023-06-05T03:13:25;94330.94;;;13.37;83.75
61345;BME280;47216;42.656;23.232;2023-06-05T03:15:52;94320.75;;;13.41;83.70
61345;BME280;47216;42.656;23.232;2023-06-05T03:18:22;94336.75;;;13.44;84.13
61345;BME280;47216;42.656;23.232;2023-06-05T03:20:51;94344.13;;;13.53;83.60
61345;BME280;47216;42.656;23.232;2023-06-05T03:23:21;94340.50;;;13.59;83.97
61345;BME280;47216;42.656;23.232;2023-06-05T03:25:48;94348.13;;;13.65;84.10
61345;BME280;47216;42.656;23.232;2023-06-05T03:28:16;94343.19;;;13.69;83.86
61345;BME280;47216;42.656;23.232;2023-06-05T03:30:43;94345.56;;;13.71;83.91
61345;BME280;47216;42.656;23.232;2023-06-05T03:33:09;94347.91;;;13.72;84.01
61345;BME280;47216;42.656;23.232;2023-06-05T03:35:36;94350.03;;;13.75;83.54
61345;BME280;47216;42.656;23.232;2023-06-05T03:38:06;94347.44;;;13.80;83.25
61345;BME280;47216;42.656;23.232;2023-06-05T03:40:33;94352.13;;;13.73;83.32
61345;BME280;47216;42.656;23.232;2023-06-05T03:43:00;94342.09;;;13.65;83.66
61345;BME280;47216;42.656;23.232;2023-06-05T03:45:27;94349.19;;;13.70;84.15
61345;BME280;47216;42.656;23.232;2023-06-05T03:47:54;94343.19;;;13.69;84.00
61345;BME280;47216;42.656;23.232;2023-06-05T03:50:25;94352.13;;;13.73;83.79
61345;BME280;47216;42.656;23.232;2023-06-05T03:52:54;94348.44;;;13.74;83.77
61345;BME280;47216;42.656;23.232;2023-06-05T03:55:29;94344.53;;;13.77;84.60
61345;BME280;47216;42.656;23.232;2023-06-05T03:58:09;94341.38;;;13.75;84.84
61345;BME280;47216;42.656;23.232;2023-06-05T04:00:38;94346.66;;;13.80;84.83
61345;BME280;47216;42.656;23.232;2023-06-05T04:03:06;94346.38;;;13.81;85.08
61345;BME280;47216;42.656;23.232;2023-06-05T04:05:34;94349.50;;;13.73;85.20
61345;BME280;47216;42.656;23.232;2023-06-05T04:08:01;94346.31;;;13.66;85.80
61345;BME280;47216;42.656;23.232;2023-06-05T04:10:30;94342.41;;;13.74;85.56
61345;BME280;47216;42.656;23.232;2023-06-05T04:12:57;94346.16;;;13.93;85.91
61345;BME280;47216;42.656;23.232;2023-06-05T04:15:24;94338.06;;;13.95;86.21
61345;BME280;47216;42.656;23.232;2023-06-05T04:17:51;94346.47;;;14.02;86.47
61345;BME280;47216;42.656;23.232;2023-06-05T04:20:19;94348.06;;;14.03;86.69
61345;BME280;47216;42.656;23.232;2023-06-05T04:22:46;94346.53;;;14.12;87.40
61345;BME280;47216;42.656;23.232;2023-06-05T04:25:13;94348.66;;;14.25;86.94
61345;BME280;47216;42.656;23.232;2023-06-05T04:27:43;94336.66;;;14.40;86.84
61345;BME280;47216;42.656;23.232;2023-06-05T04:30:12;94336.44;;;14.57;86.69
61345;BME280;47216;42.656;23.232;2023-06-05T04:32:40;94333.03;;;14.71;86.62
61345;BME280;47216;42.656;23.232;2023-06-05T04:35:08;94335.41;;;14.83;86.14
61345;BME280;47216;42.656;23.232;2023-06-05T04:37:36;94337.28;;;14.98;85.84
61345;BME280;47216;42.656;23.232;2023-06-05T04:40:05;94340.97;;;15.07;85.45
61345;BME280;47216;42.656;23.232;2023-06-05T04:42:35;94337.28;;;15.19;85.51
61345;BME280;47216;42.656;23.232;2023-06-05T04:45:06;94333.88;;;15.23;85.39
61345;BME280;47216;42.656;23.232;2023-06-05T04:47:34;94332.78;;;15.29;85.22
61345;BME280;47216;42.656;23.232;2023-06-05T04:50:02;94335.44;;;15.34;84.62
61345;BME280;47216;42.656;23.232;2023-06-05T04:52:30;94342.50;;;15.49;84.83
61345;BME280;47216;42.656;23.232;2023-06-05T04:54:58;94334.59;;;15.65;84.44
61345;BME280;47216;42.656;23.232;2023-06-05T04:57:26;94330.38;;;15.69;84.37
61345;BME280;47216;42.656;23.232;2023-06-05T04:59:53;94336.41;;;15.85;84.42
61345;BME280;47216;42.656;23.232;2023-06-05T05:02:22;94340.31;;;15.98;83.56
61345;BME280;47216;42.656;23.232;2023-06-05T05:04:49;94340.53;;;16.11;83.19
61345;BME280;47216;42.656;23.232;2023-06-05T05:07:16;94339.94;;;16.25;82.93
61345;BME280;47216;42.656;23.232;2023-06-05T05:09:43;94338.03;;;16.35;82.28
61345;BME280;47216;42.656;23.232;2023-06-05T05:12:11;94350.06;;;16.52;82.15
61345;BME280;47216;42.656;23.232;2023-06-05T05:14:38;94334.97;;;16.68;82.32
61345;BME280;47216;42.656;23.232;2023-06-05T05:17:05;94343.09;;;16.76;81.31
61345;BME280;47216;42.656;23.232;2023-06-05T05:19:33;94335.16;;;16.82;81.21
61345;BME280;47216;42.656;23.232;2023-06-05T05:22:00;94335.69;;;16.78;81.19
61345;BME280;47216;42.656;23.232;2023-06-05T05:24:28;94337.28;;;16.79;80.92
61345;BME280;47216;42.656;23.232;2023-06-05T05:26:55;94337.28;;;16.85;81.39
61345;BME280;47216;42.656;23.232;2023-06-05T05:29:22;94334.88;;;16.88;81.19
61345;BME280;47216;42.656;23.232;2023-06-05T05:31:49;94335.41;;;16.85;81.28
61345;BME280;47216;42.656;23.232;2023-06-05T05:34:17;94336.19;;;16.86;80.75
61345;BME280;47216;42.656;23.232;2023-06-05T05:36:46;94340.38;;;16.92;80.82
61345;BME280;47216;42.656;23.232;2023-06-05T05:39:13;94338.00;;;16.90;80.59
61345;BME280;47216;42.656;23.232;2023-06-05T05:41:41;94334.81;;;16.93;80.43
61345;BME280;47216;42.656;23.232;2023-06-05T05:44:07;94336.13;;;16.96;80.66
61345;BME280;47216;42.656;23.232;2023-06-05T05:46:34;94336.63;;;17.03;80.60
61345;BME280;47216;42.656;23.232;2023-06-05T05:49:01;94334.25;;;17.01;80.90
61345;BME280;47216;42.656;23.232;2023-06-05T05:51:28;94328.19;;;17.01;80.92
61345;BME280;47216;42.656;23.232;2023-06-05T05:53:57;94325.81;;;16.99;80.80
61345;BME280;47216;42.656;23.232;2023-06-05T05:56:23;94327.38;;;17.00;80.95
61345;BME280;47216;42.656;23.232;2023-06-05T05:58:51;94328.66;;;17.08;81.01
61345;BME280;47216;42.656;23.232;2023-06-05T06:01:17;94318.91;;;17.09;81.11
61345;BME280;47216;42.656;23.232;2023-06-05T06:03:44;94322.31;;;17.09;81.84
61345;BME280;47216;42.656;23.232;2023-06-05T06:06:11;94331.25;;;17.13;81.73
61345;BME280;47216;42.656;23.232;2023-06-05T06:08:38;94327.53;;;17.14;81.69
61345;BME280;47216;42.656;23.232;2023-06-05T06:11:06;94334.34;;;17.20;81.86
61345;BME280;47216;42.656;23.232;2023-06-05T06:13:34;94332.47;;;17.26;81.56
61345;BME280;47216;42.656;23.232;2023-06-05T06:16:02;94334.78;;;17.33;81.73
61345;BME280;47216;42.656;23.232;2023-06-05T06:18:29;94334.22;;;17.36;81.76
61345;BME280;47216;42.656;23.232;2023-06-05T06:20:55;94329.75;;;17.36;81.61
61345;BME280;47216;42.656;23.232;2023-06-05T06:23:23;94328.41;;;17.39;81.78
61345;BME280;47216;42.656;23.232;2023-06-05T06:25:50;94329.44;;;17.43;81.58
61345;BME280;47216;42.656;23.232;2023-06-05T06:28:18;94311.47;;;17.45;81.58
61345;BME280;47216;42.656;23.232;2023-06-05T06:30:45;94324.09;;;17.48;81.32
61345;BME280;47216;42.656;23.232;2023-06-05T06:33:12;94321.91;;;17.55;80.77
61345;BME280;47216;42.656;23.232;2023-06-05T06:35:39;94327.09;;;17.66;80.79
61345;BME280;47216;42.656;23.232;2023-06-05T06:38:06;94321.81;;;17.66;80.82
61345;BME280;47216;42.656;23.232;2023-06-05T06:40:33;94315.97;;;17.69;80.68
61345;BME280;47216;42.656;23.232;2023-06-05T06:42:59;94314.31;;;17.78;80.71
61345;BME280;47216;42.656;23.232;2023-06-05T06:45:28;94314.50;;;17.87;80.55
61345;BME280;47216;42.656;23.232;2023-06-05T06:47:54;94312.53;;;17.97;80.27
61345;BME280;47216;42.656;23.232;2023-06-05T06:50:21;94301.25;;;17.92;80.39
61345;BME280;47216;42.656;23.232;2023-06-05T06:52:48;94310.56;;;18.08;79.85
61345;BME280;47216;42.656;23.232;2023-06-05T06:55:15;94285.44;;;18.11;79.53
61345;BME280;47216;42.656;23.232;2023-06-05T06:57:42;94301.59;;;18.28;79.36
61345;BME280;47216;42.656;23.232;2023-06-05T07:00:10;94306.31;;;18.31;79.32
61345;BME280;47216;42.656;23.232;2023-06-05T07:02:39;94308.88;;;18.36;79.51
61345;BME280;47216;42.656;23.232;2023-06-05T07:05:07;94311.25;;;18.38;79.41
61345;BME280;47216;42.656;23.232;2023-06-05T07:07:34;94299.75;;;18.47;78.50
61345;BME280;47216;42.656;23.232;2023-06-05T07:10:01;94312.69;;;18.49;78.23
61345;BME280;47216;42.656;23.232;2023-06-05T07:12:28;94304.91;;;18.58;78.26
61345;BME280;47216;42.656;23.232;2023-06-05T07:14:54;94306.47;;;18.59;77.54
61345;BME280;47216;42.656;23.232;2023-06-05T07:17:21;94303.03;;;18.58;77.33
61345;BME280;47216;42.656;23.232;2023-06-05T07:19:49;94306.88;;;18.66;77.24
61345;BME280;47216;42.656;23.232;2023-06-05T07:22:16;94311.13;;;18.67;77.17
61345;BME280;47216;42.656;23.232;2023-06-05T07:24:43;94304.31;;;18.61;77.51
61345;BME280;47216;42.656;23.232;2023-06-05T07:27:10;94307.31;;;18.73;77.51
61345;BME280;47216;42.656;23.232;2023-06-05T07:29:36;94323.06;;;18.83;77.56
61345;BME280;47216;42.656;23.232;2023-06-05T07:32:03;94311.69;;;18.83;77.19
61345;BME280;47216;42.656;23.232;2023-06-05T07:34:32;94311.91;;;18.86;77.00
61345;BME280;47216;42.656;23.232;2023-06-05T07:37:01;94316.59;;;18.89;77.68
61345;BME280;47216;42.656;23.232;2023-06-05T07:39:28;94309.41;;;18.76;77.05
61345;BME280;47216;42.656;23.232;2023-06-05T07:41:55;94323.75;;;18.89;77.23
61345;BME280;47216;42.656;23.232;2023-06-05T07:44:22;94325.69;;;19.02;77.80
61345;BME280;47216;42.656;23.232;2023-06-05T07:46:49;94326.19;;;19.04;78.18
61345;BME280;47216;42.656;23.232;2023-06-05T07:49:16;94333.66;;;19.16;77.79
61345;BME280;47216;42.656;23.232;2023-06-05T07:51:43;94338.16;;;19.16;77.90
61345;BME280;47216;42.656;23.232;2023-06-05T07:54:14;94332.00;;;19.20;76.59
61345;BME280;47216;42.656;23.232;2023-06-05T07:56:42;94333.56;;;19.21;76.07
61345;BME280;47216;42.656;23.232;2023-06-05T07:59:09;94333.81;;;19.39;76.20
61345;BME280;47216;42.656;23.232;2023-06-05T08:01:39;94319.00;;;19.38;76.79
61345;BME280;47216;42.656;23.232;2023-06-05T08:04:06;94335.41;;;19.53;75.96
61345;BME280;47216;42.656;23.232;2023-06-05T08:06:35;94335.63;;;19.57;74.55
61345;BME280;47216;42.656;23.232;2023-06-05T08:09:03;94332.66;;;19.59;73.25
61345;BME280;47216;42.656;23.232;2023-06-05T08:11:32;94341.31;;;19.64;72.80
61345;BME280;47216;42.656;23.232;2023-06-05T08:13:59;94333.88;;;19.66;72.22
61345;BME280;47216;42.656;23.232;2023-06-05T08:16:26;94323.78;;;19.68;73.28
61345;BME280;47216;42.656;23.232;2023-06-05T08:18:53;94334.44;;;19.63;72.56
61345;BME280;47216;42.656;23.232;2023-06-05T08:21:20;94338.75;;;19.59;74.61
61345;BME280;47216;42.656;23.232;2023-06-05T08:23:47;94339.38;;;19.70;74.55
61345;BME280;47216;42.656;23.232;2023-06-05T08:26:14;94332.47;;;19.55;74.51
61345;BME280;47216;42.656;23.232;2023-06-05T08:28:42;94342.09;;;19.65;74.64
61345;BME280;47216;42.656;23.232;2023-06-05T08:31:09;94346.44;;;19.75;74.61
61345;BME280;47216;42.656;23.232;2023-06-05T08:33:36;94358.63;;;19.76;73.37
61345;BME280;47216;42.656;23.232;2023-06-05T08:36:04;94352.72;;;19.79;75.19
61345;BME280;47216;42.656;23.232;2023-06-05T08:38:33;94346.84;;;19.82;75.19
61345;BME280;47216;42.656;23.232;2023-06-05T08:41:02;94352.81;;;19.73;74.79
61345;BME280;47216;42.656;23.232;2023-06-05T08:43:30;94347.16;;;19.80;75.42
61345;BME280;47216;42.656;23.232;2023-06-05T08:45:59;94357.25;;;19.78;75.41
61345;BME280;47216;42.656;23.232;2023-06-05T08:48:26;94347.16;;;19.80;75.75
61345;BME280;47216;42.656;23.232;2023-06-05T08:50:52;94349.81;;;19.80;75.43
61345;BME280;47216;42.656;23.232;2023-06-05T08:53:22;94348.03;;;19.76;76.43
61345;BME280;47216;42.656;23.232;2023-06-05T08:55:53;94349.00;;;19.80;77.55
61345;BME280;47216;42.656;23.232;2023-06-05T08:58:21;94346.44;;;19.75;77.66
61345;BME280;47216;42.656;23.232;2023-06-05T09:00:48;94339.13;;;19.85;77.57
61345;BME280;47216;42.656;23.232;2023-06-05T09:03:17;94340.19;;;19.84;78.51
61345;BME280;47216;42.656;23.232;2023-06-05T09:05:45;94352.44;;;19.94;78.24
61345;BME280;47216;42.656;23.232;2023-06-05T09:08:14;94349.91;;;20.03;77.97
61345;BME280;47216;42.656;23.232;2023-06-05T09:10:42;94355.56;;;19.96;75.35
61345;BME280;47216;42.656;23.232;2023-06-05T09:13:09;94354.81;;;20.09;73.02
61345;BME280;47216;42.656;23.232;2023-06-05T09:15:36;94334.50;;;20.19;72.88
61345;BME280;47216;42.656;23.232;2023-06-05T09:18:07;94352.94;;;20.24;72.46
61345;BME280;47216;42.656;23.232;2023-06-05T09:20:39;94354.09;;;20.45;70.90
61345;BME280;47216;42.656;23.232;2023-06-05T09:23:24;94354.13;;;20.59;70.11
61345;BME280;47216;42.656;23.232;2023-06-05T09:25:52;94347.88;;;20.77;69.34
61345;BME280;47216;42.656;23.232;2023-06-05T09:28:20;94345.28;;;20.86;69.13
61345;BME280;47216;42.656;23.232;2023-06-05T09:30:56;94339.53;;;21.07;67.61
61345;BME280;47216;42.656;23.232;2023-06-05T09:33:24;94341.47;;;21.15;67.84
61345;BME280;47216;42.656;23.232;2023-06-05T09:36:06;94346.22;;;21.27;68.19
61345;BME280;47216;42.656;23.232;2023-06-05T09:38:34;94347.69;;;21.33;67.35
61345;BME280;47216;42.656;23.232;2023-06-05T09:41:02;94348.69;;;21.23;68.58
61345;BME280;47216;42.656;23.232;2023-06-05T09:43:29;94339.66;;;21.24;68.81
61345;BME280;47216;42.656;23.232;2023-06-05T09:45:56;94344.53;;;21.31;68.34
61345;BME280;47216;42.656;23.232;2023-06-05T09:48:23;94341.41;;;21.06;66.89
61345;BME280;47216;42.656;23.232;2023-06-05T09:50:51;94340.53;;;20.97;67.29
61345;BME280;47216;42.656;23.232;2023-06-05T09:53:19;94331.22;;;20.99;67.08
61345;BME280;47216;42.656;23.232;2023-06-05T09:55:47;94333.25;;;21.03;67.32
61345;BME280;47216;42.656;23.232;2023-06-05T09:58:16;94335.31;;;21.06;68.28
61345;BME280;47216;42.656;23.232;2023-06-05T10:03:14;94328.34;;;21.10;68.47
61345;BME280;47216;42.656;23.232;2023-06-05T10:05:43;94324.28;;;21.12;69.24
61345;BME280;47216;42.656;23.232;2023-06-05T10:08:11;94326.19;;;21.20;69.73
61345;BME280;47216;42.656;23.232;2023-06-05T10:10:41;94327.34;;;21.06;67.06
61345;BME280;47216;42.656;23.232;2023-06-05T10:13:09;94330.38;;;21.13;66.82
61345;BME280;47216;42.656;23.232;2023-06-05T10:15:38;94331.03;;;20.96;67.08
61345;BME280;47216;42.656;23.232;2023-06-05T10:18:08;94329.41;;;21.09;68.48
61345;BME280;47216;42.656;23.232;2023-06-05T10:20:36;94318.56;;;21.19;66.99
61345;BME280;47216;42.656;23.232;2023-06-05T10:23:04;94318.31;;;21.29;68.05
61345;BME280;47216;42.656;23.232;2023-06-05T10:25:33;94327.38;;;21.28;67.53
61345;BME280;47216;42.656;23.232;2023-06-05T10:28:37;94323.34;;;21.39;66.25
61345;BME280;47216;42.656;23.232;2023-06-05T10:31:18;94315.78;;;21.47;66.09
61345;BME280;47216;42.656;23.232;2023-06-05T10:37:06;94297.78;;;21.66;65.38
61345;BME280;47216;42.656;23.232;2023-06-05T10:39:39;94300.91;;;21.68;65.28
61345;BME280;47216;42.656;23.232;2023-06-05T10:42:07;94293.63;;;21.82;65.89
61345;BME280;47216;42.656;23.232;2023-06-05T10:44:42;94300.41;;;21.97;65.11
61345;BME280;47216;42.656;23.232;2023-06-05T10:47:48;94293.50;;;21.96;64.52
61345;BME280;47216;42.656;23.232;2023-06-05T10:50:22;94285.50;;;21.88;64.48
61345;BME280;47216;42.656;23.232;2023-06-05T10:52:53;94291.25;;;21.81;63.59
61345;BME280;47216;42.656;23.232;2023-06-05T10:55:21;94285.50;;;21.88;63.78
61345;BME280;47216;42.656;23.232;2023-06-05T10:58:05;94286.03;;;21.98;61.08
61345;BME280;47216;42.656;23.232;2023-06-05T11:00:36;94282.13;;;21.96;61.00
61345;BME280;47216;42.656;23.232;2023-06-05T11:03:04;94281.50;;;21.99;60.65
61345;BME280;47216;42.656;23.232;2023-06-05T11:05:31;94281.53;;;22.16;61.27
61345;BME280;47216;42.656;23.232;2023-06-05T11:08:12;94280.25;;;22.05;61.24
61345;BME280;47216;42.656;23.232;2023-06-05T11:11:04;94276.84;;;22.05;61.78
61345;BME280;47216;42.656;23.232;2023-06-05T11:14:01;94279.81;;;22.12;61.37
61345;BME280;47216;42.656;23.232;2023-06-05T11:16:30;94263.44;;;22.18;61.10
61345;BME280;47216;42.656;23.232;2023-06-05T11:19:34;94270.44;;;22.14;59.43
61345;BME280;47216;42.656;23.232;2023-06-05T11:22:05;94261.91;;;22.35;59.17
61345;BME280;47216;42.656;23.232;2023-06-05T11:24:34;94258.63;;;22.38;60.05
61345;BME280;47216;42.656;23.232;2023-06-05T11:27:02;94263.00;;;22.42;60.28
61345;BME280;47216;42.656;23.232;2023-06-05T11:29:31;94239.38;;;22.41;60.53
61345;BME280;47216;42.656;23.232;2023-06-05T11:31:59;94256.44;;;22.57;61.17
61345;BME280;47216;42.656;23.232;2023-06-05T11:34:26;94256.44;;;22.66;61.18
61345;BME280;47216;42.656;23.232;2023-06-05T11:36:55;94249.56;;;22.65;60.91
61345;BME280;47216;42.656;23.232;2023-06-05T11:39:23;94256.31;;;22.62;61.34
61345;BME280;47216;42.656;23.232;2023-06-05T11:41:55;94244.25;;;22.56;60.93
61345;BME280;47216;42.656;23.232;2023-06-05T11:44:32;94246.44;;;22.72;59.57
61345;BME280;47216;42.656;23.232;2023-06-05T11:47:00;94245.97;;;22.70;59.28
61345;BME280;47216;42.656;23.232;2023-06-05T11:49:28;94243.63;;;22.85;58.41
61345;BME280;47216;42.656;23.232;2023-06-05T11:51:55;94242.34;;;22.92;57.90
61345;BME280;47216;42.656;23.232;2023-06-05T11:54:27;94240.34;;;23.06;57.85
61345;BME280;47216;42.656;23.232;2023-06-05T11:56:59;94242.00;;;23.19;56.91
61345;BME280;47216;42.656;23.232;2023-06-05T11:59:33;94237.03;;;23.18;57.43
61345;BME280;47216;42.656;23.232;2023-06-05T12:02:02;94231.06;;;23.12;57.04
61345;BME280;47216;42.656;23.232;2023-06-05T12:04:30;94233.41;;;23.22;56.31
61345;BME280;47216;42.656;23.232;2023-06-05T12:06:57;94232.19;;;23.11;56.55
61345;BME280;47216;42.656;23.232;2023-06-05T12:09:25;94234.81;;;23.20;56.18
61345;BME280;47216;42.656;23.232;2023-06-05T12:11:52;94233.81;;;23.33;56.77
61345;BME280;47216;42.656;23.232;2023-06-05T12:14:31;94224.59;;;23.39;57.03
61345;BME280;47216;42.656;23.232;2023-06-05T12:16:59;94222.03;;;23.52;57.13
61345;BME280;47216;42.656;23.232;2023-06-05T12:19:31;94224.97;;;23.59;55.44
61345;BME280;47216;42.656;23.232;2023-06-05T12:22:05;94222.56;;;23.66;55.59
61345;BME280;47216;42.656;23.232;2023-06-05T12:24:32;94214.31;;;23.59;55.09
61345;BME280;47216;42.656;23.232;2023-06-05T12:27:00;94221.41;;;23.55;56.37
61345;BME280;47216;42.656;23.232;2023-06-05T12:29:31;94213.00;;;23.74;55.47
61345;BME280;47216;42.656;23.232;2023-06-05T12:31:59;94210.03;;;23.75;55.38
61345;BME280;47216;42.656;23.232;2023-06-05T12:34:42;94204.41;;;23.77;55.41
61345;BME280;47216;42.656;23.232;2023-06-05T12:37:26;94201.59;;;23.73;56.01
61345;BME280;47216;42.656;23.232;2023-06-05T12:39:57;94188.94;;;23.61;54.96
61345;BME280;47216;42.656;23.232;2023-06-05T12:42:24;94184.03;;;23.72;55.71
61345;BME280;47216;42.656;23.232;2023-06-05T12:44:51;94188.38;;;23.85;55.28
61345;BME280;47216;42.656;23.232;2023-06-05T12:47:18;94195.91;;;23.83;54.65
61345;BME280;47216;42.656;23.232;2023-06-05T12:49:46;94182.59;;;23.83;55.38
61345;BME280;47216;42.656;23.232;2023-06-05T12:52:13;94180.69;;;23.84;54.90
61345;BME280;47216;42.656;23.232;2023-06-05T12:54:40;94179.19;;;23.74;54.98
61345;BME280;47216;42.656;23.232;2023-06-05T12:57:07;94194.97;;;23.79;55.46
61345;BME280;47216;42.656;23.232;2023-06-05T12:59:34;94181.09;;;23.95;55.12
61345;BME280;47216;42.656;23.232;2023-06-05T13:02:01;94185.00;;;23.97;54.47
61345;BME280;47216;42.656;23.232;2023-06-05T13:04:29;94177.16;;;24.01;55.82